createdAt,value
2022-07-26T00:01:39.629Z,100621.00
2022-07-26T00:04:07.710Z,100619.22
2022-07-26T00:06:34.792Z,100615.47
2022-07-26T00:09:01.758Z,100615.69
2022-07-26T00:11:30.361Z,100619.09
2022-07-26T00:13:57.510Z,100624.16
2022-07-26T00:16:24.506Z,100622.78
2022-07-26T00:18:51.537Z,100617.97
2022-07-26T00:21:18.541Z,100617.66
2022-07-26T00:23:45.621Z,100630.63
2022-07-26T00:26:12.640Z,100628.44
2022-07-26T00:28:41.305Z,100632.50
2022-07-26T00:31:08.983Z,100627.22
2022-07-26T00:33:35.975Z,100631.00
2022-07-26T00:36:02.996Z,100626.44
2022-07-26T00:38:29.882Z,100621.50
2022-07-26T00:40:56.869Z,100620.56
2022-07-26T00:43:23.987Z,100624.03
2022-07-26T00:45:51.237Z,100617.41
2022-07-26T00:48:19.176Z,100621.38
2022-07-26T00:50:46.646Z,100626.56
2022-07-26T00:53:13.696Z,100624.53
2022-07-26T00:55:40.874Z,100630.88
2022-07-26T00:58:07.858Z,100623.50
2022-07-26T01:00:35.105Z,100626.94
2022-07-26T01:03:02.631Z,100628.34
2022-07-26T01:05:29.895Z,100627.50
2022-07-26T01:07:56.922Z,100625.06
2022-07-26T01:10:23.888Z,100630.72
2022-07-26T01:12:51.081Z,100622.03
2022-07-26T01:15:18.915Z,100624.63
2022-07-26T01:17:45.961Z,100620.84
2022-07-26T01:20:14.360Z,100625.09
2022-07-26T01:22:41.606Z,100620.16
2022-07-26T01:25:09.710Z,100623.38
2022-07-26T01:27:39.520Z,100620.31
2022-07-26T01:30:12.073Z,100619.81
2022-07-26T01:32:39.448Z,100624.63
2022-07-26T01:35:07.978Z,100624.28
2022-07-26T01:37:35.191Z,100627.97
2022-07-26T01:40:03.135Z,100623.88
2022-07-26T01:42:31.732Z,100622.47
2022-07-26T01:44:58.651Z,100615.97
2022-07-26T01:47:25.628Z,100631.91
2022-07-26T01:49:52.523Z,100629.88
2022-07-26T01:52:19.535Z,100630.97
2022-07-26T01:54:46.453Z,100634.25
2022-07-26T01:57:13.407Z,100631.19
2022-07-26T01:59:40.345Z,100634.66
2022-07-26T02:02:07.549Z,100628.06
2022-07-26T02:04:52.981Z,100631.53
2022-07-26T02:07:20.033Z,100629.81
2022-07-26T02:09:46.928Z,100632.59
2022-07-26T02:12:15.330Z,100626.81
2022-07-26T02:14:42.832Z,100620.88
2022-07-26T02:17:09.807Z,100621.69
2022-07-26T02:19:37.607Z,100624.44
2022-07-26T02:22:20.415Z,100630.25
2022-07-26T02:24:48.704Z,100635.66
2022-07-26T02:27:16.678Z,100636.78
2022-07-26T02:29:43.708Z,100638.34
2022-07-26T02:32:11.217Z,100637.34
2022-07-26T02:34:38.274Z,100629.84
2022-07-26T02:37:05.244Z,100643.53
2022-07-26T02:39:32.279Z,100636.09
2022-07-26T02:42:02.263Z,100639.34
2022-07-26T02:44:30.500Z,100642.28
2022-07-26T02:46:57.506Z,100640.06
2022-07-26T02:49:24.475Z,100641.75
2022-07-26T02:51:52.212Z,100645.84
2022-07-26T02:54:19.220Z,100643.31
2022-07-26T02:56:46.146Z,100639.69
2022-07-26T02:59:13.137Z,100648.28
2022-07-26T03:01:40.373Z,100647.59
2022-07-26T03:04:08.202Z,100645.69
2022-07-26T03:06:35.542Z,100641.41
2022-07-26T03:09:02.495Z,100651.16
2022-07-26T03:11:29.392Z,100657.13
2022-07-26T03:13:56.430Z,100654.91
2022-07-26T03:16:27.464Z,100653.34
2022-07-26T03:18:56.899Z,100653.06
2022-07-26T03:21:24.859Z,100660.22
2022-07-26T03:23:51.852Z,100657.69
2022-07-26T03:26:18.807Z,100660.22
2022-07-26T03:28:45.778Z,100672.50
2022-07-26T03:31:13.258Z,100664.78
2022-07-26T03:33:42.837Z,100670.09
2022-07-26T03:36:11.403Z,100668.38
2022-07-26T03:38:38.724Z,100668.19
2022-07-26T03:41:06.395Z,100674.53
2022-07-26T03:43:36.250Z,100675.88
2022-07-26T03:46:03.762Z,100674.31
2022-07-26T03:48:31.739Z,100676.75
2022-07-26T03:50:58.760Z,100680.84
2022-07-26T03:53:25.696Z,100676.25
2022-07-26T03:56:11.881Z,100681.88
2022-07-26T03:58:38.830Z,100676.44
2022-07-26T04:01:05.827Z,100672.84
2022-07-26T04:03:32.867Z,100673.69
2022-07-26T04:05:59.981Z,100675.22
2022-07-26T04:08:28.437Z,100680.19
2022-07-26T04:10:55.394Z,100672.50
2022-07-26T04:13:24.015Z,100676.44
2022-07-26T04:15:51.025Z,100677.66
2022-07-26T04:18:18.119Z,100685.03
2022-07-26T04:20:45.672Z,100679.91
2022-07-26T04:23:12.707Z,100684.66
2022-07-26T04:25:40.828Z,100685.88
2022-07-26T04:28:08.958Z,100688.78
2022-07-26T04:30:35.990Z,100684.69
2022-07-26T04:33:03.372Z,100688.81
2022-07-26T04:35:30.607Z,100688.31
2022-07-26T04:37:57.756Z,100692.06
2022-07-26T04:40:25.752Z,100701.09
2022-07-26T04:42:52.701Z,100693.09
2022-07-26T04:45:20.937Z,100692.41
2022-07-26T04:47:50.286Z,100693.22
2022-07-26T04:50:19.694Z,100686.25
2022-07-26T04:52:48.010Z,100684.91
2022-07-26T04:55:15.888Z,100685.75
2022-07-26T04:57:43.086Z,100677.06
2022-07-26T05:00:22.199Z,100685.59
2022-07-26T05:02:55.946Z,100688.81
2022-07-26T05:05:24.767Z,100687.63
2022-07-26T05:07:58.963Z,100694.59
2022-07-26T05:10:36.025Z,100699.34
2022-07-26T05:13:05.668Z,100701.25
2022-07-26T05:15:35.408Z,100698.00
2022-07-26T05:18:06.857Z,100699.22
2022-07-26T05:20:35.165Z,100710.78
2022-07-26T05:23:02.372Z,100697.00
2022-07-26T05:25:29.470Z,100717.25
2022-07-26T05:27:56.499Z,100701.41
2022-07-26T05:30:23.490Z,100696.94
2022-07-26T05:32:50.599Z,100705.13
2022-07-26T05:35:17.584Z,100702.72
2022-07-26T05:37:44.738Z,100707.84
2022-07-26T05:40:12.640Z,100705.97
2022-07-26T05:42:39.688Z,100711.41
2022-07-26T05:45:07.795Z,100707.06
2022-07-26T05:47:34.802Z,100712.31
2022-07-26T05:50:01.852Z,100710.94
2022-07-26T05:52:28.898Z,100715.16
2022-07-26T05:54:56.063Z,100721.44
2022-07-26T05:57:23.006Z,100710.34
2022-07-26T05:59:50.411Z,100721.03
2022-07-26T06:02:17.421Z,100719.03
2022-07-26T06:04:45.513Z,100713.22
2022-07-26T06:07:15.192Z,100713.09
2022-07-26T06:09:42.142Z,100705.88
2022-07-26T06:12:09.191Z,100712.19
2022-07-26T06:14:36.244Z,100725.00
2022-07-26T06:17:04.559Z,100721.75
2022-07-26T06:19:31.924Z,100716.63
2022-07-26T06:21:59.236Z,100722.28
2022-07-26T06:24:26.288Z,100726.59
2022-07-26T06:26:57.996Z,100723.38
2022-07-26T06:29:32.949Z,100733.81
2022-07-26T06:32:00.259Z,100721.47
2022-07-26T06:34:27.449Z,100720.94
2022-07-26T06:36:54.703Z,100725.34
2022-07-26T06:39:21.720Z,100733.50
2022-07-26T06:41:48.905Z,100733.50
2022-07-26T06:44:22.786Z,100739.84
2022-07-26T06:46:49.856Z,100739.34
2022-07-26T06:49:21.872Z,100739.47
2022-07-26T06:51:49.549Z,100742.03
2022-07-26T06:54:16.639Z,100742.84
2022-07-26T06:56:43.810Z,100748.47
2022-07-26T06:59:10.739Z,100747.53
2022-07-26T07:01:58.694Z,100749.16
2022-07-26T07:04:24.774Z,100757.16
2022-07-26T07:06:51.700Z,100743.19
2022-07-26T07:09:19.857Z,100751.41
2022-07-26T07:11:51.822Z,100752.78
2022-07-26T07:14:23.429Z,100751.75
2022-07-26T07:16:50.476Z,100746.75
2022-07-26T07:19:17.780Z,100754.91
2022-07-26T07:21:44.750Z,100754.50
2022-07-26T07:24:12.124Z,100775.13
2022-07-26T07:26:39.266Z,100766.53
2022-07-26T07:29:06.308Z,100780.13
2022-07-26T07:31:48.525Z,100789.28
2022-07-26T07:34:18.117Z,100788.03
2022-07-26T07:36:47.356Z,100793.75
2022-07-26T07:39:17.350Z,100789.00
2022-07-26T07:41:46.019Z,100777.75
2022-07-26T07:44:13.484Z,100794.47
2022-07-26T07:46:41.225Z,100806.59
2022-07-26T07:49:08.639Z,100814.13
2022-07-26T07:51:36.474Z,100812.63
2022-07-26T07:54:05.841Z,100815.03
2022-07-26T07:56:34.033Z,100822.22
2022-07-26T07:59:01.156Z,100830.63
2022-07-26T08:01:40.534Z,100825.66
2022-07-26T08:04:09.718Z,100839.66
2022-07-26T08:06:37.162Z,100836.59
2022-07-26T08:09:05.698Z,100837.63
2022-07-26T08:11:33.825Z,100839.16
2022-07-26T08:14:01.930Z,100842.06
2022-07-26T08:16:29.449Z,100844.09
2022-07-26T08:18:57.145Z,100840.72
2022-07-26T08:21:35.709Z,100846.69
2022-07-26T08:24:03.182Z,100846.81
2022-07-26T08:26:30.275Z,100852.41
2022-07-26T08:28:59.589Z,100844.19
2022-07-26T08:31:28.513Z,100854.41
2022-07-26T08:33:56.095Z,100857.88
2022-07-26T08:36:23.756Z,100863.00
2022-07-26T08:38:50.893Z,100862.16
2022-07-26T08:41:18.793Z,100866.13
2022-07-26T08:43:51.180Z,100875.88
2022-07-26T08:46:27.698Z,100885.97
2022-07-26T08:48:58.370Z,100882.84
2022-07-26T08:51:26.409Z,100890.72
2022-07-26T08:54:05.274Z,100901.66
2022-07-26T08:56:40.950Z,100897.72
2022-07-26T08:59:20.896Z,100903.59
2022-07-26T09:02:06.488Z,100906.97
2022-07-26T09:04:43.676Z,100923.88
2022-07-26T09:07:18.251Z,100924.25
2022-07-26T09:10:16.083Z,100935.47
2022-07-26T09:12:44.346Z,100932.53
2022-07-26T09:15:21.228Z,100941.22
2022-07-26T09:17:53.355Z,100944.97
2022-07-26T09:20:27.813Z,100955.66
2022-07-26T09:23:11.669Z,100959.69
2022-07-26T09:25:43.022Z,100961.38
2022-07-26T09:28:29.710Z,100952.50
2022-07-26T09:31:03.229Z,100964.84
2022-07-26T09:33:51.247Z,100964.25
2022-07-26T09:36:19.573Z,100963.81
2022-07-26T09:38:50.338Z,100967.28
2022-07-26T09:41:33.212Z,100974.44
2022-07-26T09:44:05.274Z,100969.50
2022-07-26T09:46:35.402Z,100980.59
2022-07-26T09:49:20.064Z,100971.50
2022-07-26T09:51:50.554Z,100987.22
2022-07-26T09:54:21.092Z,100975.22
2022-07-26T09:56:51.625Z,100969.66
2022-07-26T09:59:23.608Z,100966.91
2022-07-26T10:01:53.181Z,100976.16
2022-07-26T10:04:21.057Z,100976.78
2022-07-26T10:06:49.212Z,100976.69
2022-07-26T10:09:17.134Z,100987.03
2022-07-26T10:12:00.211Z,100978.03
2022-07-26T10:14:32.877Z,100989.84
2022-07-26T10:17:01.400Z,100980.97
2022-07-26T10:19:45.771Z,100990.13
2022-07-26T10:22:35.847Z,100994.78
2022-07-26T10:25:18.033Z,100992.69
2022-07-26T10:27:57.611Z,100998.84
2022-07-26T10:30:33.588Z,100993.84
2022-07-26T10:33:15.925Z,100994.03
2022-07-26T10:35:43.613Z,100993.13
2022-07-26T10:38:15.716Z,101008.25
2022-07-26T10:41:08.428Z,101004.56
2022-07-26T10:43:41.134Z,101002.06
2022-07-26T10:46:18.952Z,100999.75
2022-07-26T10:49:08.722Z,101004.38
2022-07-26T10:51:39.251Z,101009.31
2022-07-26T10:54:12.877Z,101014.25
2022-07-26T10:56:41.179Z,101006.19
2022-07-26T10:59:08.619Z,101013.69
2022-07-26T11:01:45.438Z,101014.38
2022-07-26T11:04:20.023Z,101015.50
2022-07-26T11:06:48.502Z,101024.25
2022-07-26T11:09:17.306Z,101012.81
2022-07-26T11:11:46.838Z,101021.53
2022-07-26T11:14:17.548Z,101016.88
2022-07-26T11:16:50.437Z,101027.78
2022-07-26T11:19:26.083Z,101030.19
2022-07-26T11:21:56.154Z,101034.31
2022-07-26T11:24:23.263Z,101033.50
2022-07-26T11:26:50.475Z,101041.78
2022-07-26T11:29:37.353Z,101042.25
2022-07-26T11:32:21.990Z,101036.66
2022-07-26T11:35:00.196Z,101026.25
2022-07-26T11:37:27.727Z,101039.19
2022-07-26T11:39:54.880Z,101045.50
2022-07-26T11:42:22.155Z,101044.91
2022-07-26T11:44:50.322Z,101047.28
2022-07-26T11:47:20.360Z,101046.88
2022-07-26T11:49:52.354Z,101041.19
2022-07-26T11:52:36.389Z,101041.88
2022-07-26T11:55:03.632Z,101041.16
2022-07-26T11:57:32.228Z,101048.78
2022-07-26T12:00:00.784Z,101040.28
2022-07-26T12:02:38.349Z,101047.59
2022-07-26T12:05:21.709Z,101054.94
2022-07-26T12:08:07.171Z,101047.81
2022-07-26T12:10:34.518Z,101051.38
2022-07-26T12:13:15.870Z,101057.69
2022-07-26T12:15:52.030Z,101058.94
2022-07-26T12:18:30.281Z,101067.22
2022-07-26T12:21:08.015Z,101080.50
2022-07-26T12:23:50.093Z,101080.91
2022-07-26T12:26:25.295Z,101074.31
2022-07-26T12:28:53.351Z,101079.56
2022-07-26T12:31:27.456Z,101078.25
2022-07-26T12:33:58.430Z,101083.09
2022-07-26T12:36:26.976Z,101080.38
2022-07-26T12:38:58.741Z,101091.00
2022-07-26T12:41:52.462Z,101086.19
2022-07-26T12:44:30.159Z,101086.34
2022-07-26T12:46:57.517Z,101086.00
2022-07-26T12:49:24.604Z,101078.06
2022-07-26T12:51:51.630Z,101072.59
2022-07-26T12:54:18.567Z,101084.47
2022-07-26T12:56:46.423Z,101081.63
2022-07-26T12:59:17.959Z,101086.84
2022-07-26T13:01:45.051Z,101080.59
2022-07-26T13:04:12.436Z,101077.09
2022-07-26T13:06:39.690Z,101080.59
2022-07-26T13:09:06.610Z,101079.56
2022-07-26T13:11:33.639Z,101084.94
2022-07-26T13:14:01.083Z,101087.88
2022-07-26T13:16:28.165Z,101081.50
2022-07-26T13:18:55.290Z,101084.19
2022-07-26T13:21:22.218Z,101084.44
2022-07-26T13:23:49.153Z,101087.25
2022-07-26T13:26:16.086Z,101089.91
2022-07-26T13:28:43.675Z,101085.06
2022-07-26T13:31:11.701Z,101072.56
2022-07-26T13:33:39.514Z,101083.63
2022-07-26T13:36:06.565Z,101079.38
2022-07-26T13:38:33.635Z,101078.28
2022-07-26T13:41:02.330Z,101080.72
2022-07-26T13:43:32.981Z,101082.19
2022-07-26T13:46:00.004Z,101083.97
2022-07-26T13:48:27.129Z,101083.38
2022-07-26T13:50:55.192Z,101084.34
2022-07-26T13:53:22.333Z,101102.53
2022-07-26T13:55:49.431Z,101101.47
2022-07-26T13:58:16.580Z,101102.16
2022-07-26T14:00:43.536Z,101110.94
2022-07-26T14:03:10.780Z,101105.97
2022-07-26T14:05:37.849Z,101105.50
2022-07-26T14:08:05.350Z,101113.03
2022-07-26T14:10:32.791Z,101113.84
2022-07-26T14:12:59.797Z,101118.50
2022-07-26T14:15:26.747Z,101125.75
2022-07-26T14:17:53.915Z,101124.75
2022-07-26T14:20:21.474Z,101128.00
2022-07-26T14:22:53.166Z,101132.97
2022-07-26T14:25:21.492Z,101120.97
2022-07-26T14:27:49.375Z,101132.47
2022-07-26T14:30:16.412Z,101129.72
2022-07-26T14:32:43.418Z,101138.56
2022-07-26T14:35:11.005Z,101137.31
2022-07-26T14:37:43.649Z,101138.19
2022-07-26T14:40:14.867Z,101143.00
2022-07-26T14:42:42.093Z,101146.44
2022-07-26T14:45:09.989Z,101146.06
2022-07-26T14:47:43.508Z,101138.69
2022-07-26T14:50:12.766Z,101149.63
2022-07-26T14:52:43.431Z,101144.25
2022-07-26T14:55:11.000Z,101142.53
2022-07-26T14:57:40.161Z,101141.50
2022-07-26T15:00:15.576Z,101154.53
2022-07-26T15:02:46.983Z,101146.50
2022-07-26T15:05:16.147Z,101142.25
2022-07-26T15:07:43.765Z,101139.47
2022-07-26T15:10:14.176Z,101143.06
2022-07-26T15:12:42.907Z,101148.63
2022-07-26T15:15:11.090Z,101144.41
2022-07-26T15:17:38.456Z,101149.91
2022-07-26T15:20:06.500Z,101129.75
2022-07-26T15:22:33.798Z,101142.81
2022-07-26T15:25:00.714Z,101132.59
2022-07-26T15:27:28.077Z,101136.53
2022-07-26T15:30:03.573Z,101141.41
2022-07-26T15:32:33.031Z,101142.16
2022-07-26T15:35:00.031Z,101145.13
2022-07-26T15:37:27.367Z,101144.34
2022-07-26T15:39:54.328Z,101143.88
2022-07-26T15:42:23.177Z,101137.00
2022-07-26T15:44:50.726Z,101146.16
2022-07-26T15:47:43.485Z,101140.94
2022-07-26T15:50:07.379Z,101144.56
2022-07-26T15:52:38.609Z,101146.50
2022-07-26T15:55:08.000Z,101152.88
2022-07-26T15:57:35.678Z,101139.56
2022-07-26T16:00:05.589Z,101149.34
2022-07-26T16:02:40.563Z,101141.34
2022-07-26T16:05:09.634Z,101148.56
2022-07-26T16:07:37.117Z,101135.25
2022-07-26T16:10:05.231Z,101143.63
2022-07-26T16:12:33.172Z,101147.03
2022-07-26T16:15:00.119Z,101146.66
2022-07-26T16:17:27.144Z,101147.34
2022-07-26T16:19:54.103Z,101143.06
2022-07-26T16:22:21.123Z,101144.75
2022-07-26T16:24:53.319Z,101144.16
2022-07-26T16:27:30.208Z,101133.16
2022-07-26T16:29:57.230Z,101130.88
2022-07-26T16:32:24.293Z,101128.22
2022-07-26T16:34:51.294Z,101130.59
2022-07-26T16:37:18.482Z,101133.41
2022-07-26T16:39:45.450Z,101130.72
2022-07-26T16:42:12.371Z,101130.94
2022-07-26T16:44:39.523Z,101135.47
2022-07-26T16:47:06.529Z,101136.06
2022-07-26T16:49:33.693Z,101146.69
2022-07-26T16:52:00.712Z,101138.69
2022-07-26T16:54:27.696Z,101143.47
2022-07-26T16:56:54.613Z,101155.31
2022-07-26T16:59:21.814Z,101156.88
2022-07-26T17:01:48.850Z,101154.25
2022-07-26T17:04:16.672Z,101163.56
2022-07-26T17:07:01.742Z,101157.38
2022-07-26T17:09:31.401Z,101156.69
2022-07-26T17:12:00.655Z,101153.25
2022-07-26T17:14:31.350Z,101156.50
2022-07-26T17:16:58.941Z,101161.34
2022-07-26T17:19:25.897Z,101155.50
2022-07-26T17:21:52.913Z,101152.25
2022-07-26T17:24:19.888Z,101139.59
2022-07-26T17:26:48.026Z,101140.59
2022-07-26T17:29:15.214Z,101149.69
2022-07-26T17:31:42.113Z,101150.50
2022-07-26T17:34:09.302Z,101148.16
2022-07-26T17:36:36.952Z,101146.78
2022-07-26T17:39:05.098Z,101151.91
2022-07-26T17:41:33.634Z,101141.78
2022-07-26T17:44:02.968Z,101162.66
2022-07-26T17:46:32.517Z,101163.34
2022-07-26T17:49:00.153Z,101153.59
2022-07-26T17:51:27.177Z,101152.03
2022-07-26T17:53:54.229Z,101160.78
2022-07-26T17:56:21.149Z,101160.25
2022-07-26T17:58:48.123Z,101153.19
2022-07-26T18:01:15.113Z,101158.00
2022-07-26T18:03:42.074Z,101167.59
2022-07-26T18:06:09.152Z,101172.41
2022-07-26T18:08:36.321Z,101169.00
2022-07-26T18:11:04.788Z,101156.69
2022-07-26T18:13:31.848Z,101171.75
2022-07-26T18:16:01.844Z,101169.03
2022-07-26T18:18:32.571Z,101178.63
2022-07-26T18:20:59.645Z,101179.81
2022-07-26T18:23:26.678Z,101178.63
2022-07-26T18:25:53.784Z,101178.94
2022-07-26T18:28:20.864Z,101183.06
2022-07-26T18:30:47.775Z,101181.88
2022-07-26T18:33:14.720Z,101177.94
2022-07-26T18:35:41.742Z,101174.34
2022-07-26T18:38:09.298Z,101175.00
2022-07-26T18:40:36.594Z,101185.75
2022-07-26T18:43:03.985Z,101186.06
2022-07-26T18:45:31.037Z,101189.66
2022-07-26T18:47:58.395Z,101195.44
2022-07-26T18:50:27.188Z,101197.28
2022-07-26T18:52:59.300Z,101195.75
2022-07-26T18:55:26.271Z,101192.84
2022-07-26T18:57:53.455Z,101196.06
2022-07-26T19:00:22.592Z,101187.84
2022-07-26T19:02:51.937Z,101198.91
2022-07-26T19:05:20.411Z,101206.22
2022-07-26T19:07:47.436Z,101206.69
2022-07-26T19:10:14.722Z,101205.25
2022-07-26T19:12:43.638Z,101210.69
2022-07-26T19:15:11.329Z,101204.81
2022-07-26T19:17:38.989Z,101210.53
2022-07-26T19:20:08.392Z,101212.16
2022-07-26T19:22:36.552Z,101209.63
2022-07-26T19:25:06.125Z,101217.44
2022-07-26T19:27:33.093Z,101219.78
2022-07-26T19:30:00.022Z,101217.97
2022-07-26T19:32:30.475Z,101225.09
2022-07-26T19:35:00.365Z,101226.38
2022-07-26T19:37:27.334Z,101236.75
2022-07-26T19:39:58.989Z,101241.59
2022-07-26T19:42:26.029Z,101245.25
2022-07-26T19:44:52.942Z,101235.03
2022-07-26T19:47:20.109Z,101253.41
2022-07-26T19:49:47.044Z,101243.44
2022-07-26T19:52:14.416Z,101247.88
2022-07-26T19:54:41.349Z,101246.16
2022-07-26T19:57:08.681Z,101239.81
2022-07-26T19:59:35.599Z,101243.88
2022-07-26T20:02:02.977Z,101244.03
2022-07-26T20:04:30.334Z,101258.22
2022-07-26T20:06:57.282Z,101252.69
2022-07-26T20:09:24.227Z,101268.47
2022-07-26T20:11:51.252Z,101258.72
2022-07-26T20:14:21.342Z,101264.22
2022-07-26T20:16:54.347Z,101267.34
2022-07-26T20:19:24.385Z,101250.53
2022-07-26T20:21:51.300Z,101267.69
2022-07-26T20:24:18.908Z,101271.75
2022-07-26T20:26:46.104Z,101278.84
2022-07-26T20:29:13.465Z,101275.00
2022-07-26T20:31:40.631Z,101276.50
2022-07-26T20:34:07.672Z,101271.78
2022-07-26T20:36:34.677Z,101273.13
2022-07-26T20:39:02.121Z,101271.25
2022-07-26T20:41:33.825Z,101281.13
2022-07-26T20:44:01.159Z,101288.59
2022-07-26T20:46:28.182Z,101274.81
2022-07-26T20:48:55.473Z,101278.25
2022-07-26T20:51:22.667Z,101286.03
2022-07-26T20:53:49.755Z,101283.75
2022-07-26T20:56:16.813Z,101279.38
2022-07-26T20:58:44.025Z,101280.97
2022-07-26T21:01:12.416Z,101281.13
2022-07-26T21:03:39.857Z,101289.13
2022-07-26T21:06:06.924Z,101282.72
2022-07-26T21:08:34.087Z,101290.47
2022-07-26T21:11:01.277Z,101288.03
2022-07-26T21:13:28.301Z,101300.06
2022-07-26T21:15:55.368Z,101304.09
2022-07-26T21:18:22.409Z,101306.81
2022-07-26T21:20:49.450Z,101295.94
2022-07-26T21:23:18.397Z,101304.56
2022-07-26T21:25:45.746Z,101304.91
2022-07-26T21:28:12.729Z,101315.97
2022-07-26T21:30:39.679Z,101316.28
2022-07-26T21:33:07.203Z,101309.28
2022-07-26T21:35:34.446Z,101320.88
2022-07-26T21:38:01.572Z,101327.19
2022-07-26T21:40:28.573Z,101321.31
2022-07-26T21:42:55.488Z,101308.13
2022-07-26T21:45:22.408Z,101317.88
2022-07-26T21:47:49.374Z,101320.28
2022-07-26T21:50:16.302Z,101327.28
2022-07-26T21:52:43.292Z,101322.69
2022-07-26T21:55:10.432Z,101327.53
2022-07-26T21:57:45.382Z,101329.88
2022-07-26T22:00:15.457Z,101324.25
2022-07-26T22:02:42.702Z,101335.03
2022-07-26T22:05:28.507Z,101330.59
2022-07-26T22:07:55.979Z,101332.16
2022-07-26T22:10:23.138Z,101338.00
2022-07-26T22:12:50.267Z,101326.66
2022-07-26T22:15:17.293Z,101328.28
2022-07-26T22:17:44.313Z,101332.44
2022-07-26T22:20:12.467Z,101330.88
2022-07-26T22:22:39.603Z,101327.53
2022-07-26T22:25:06.852Z,101340.47
2022-07-26T22:27:33.916Z,101334.59
2022-07-26T22:30:00.956Z,101340.63
2022-07-26T22:32:27.979Z,101325.16
2022-07-26T22:34:55.149Z,101343.78
2022-07-26T22:37:22.099Z,101340.50
2022-07-26T22:39:49.037Z,101343.03
2022-07-26T22:42:16.386Z,101333.00
2022-07-26T22:44:43.701Z,101331.88
2022-07-26T22:47:10.848Z,101329.56
2022-07-26T22:49:37.866Z,101326.69
2022-07-26T22:52:05.151Z,101322.13
2022-07-26T22:54:32.276Z,101324.13
2022-07-26T22:56:59.441Z,101324.41
2022-07-26T22:59:26.412Z,101328.41
2022-07-26T23:01:53.403Z,101333.31
2022-07-26T23:04:20.370Z,101333.44
2022-07-26T23:06:48.319Z,101337.41
2022-07-26T23:09:15.230Z,101334.13
2022-07-26T23:11:42.238Z,101329.78
2022-07-26T23:14:09.152Z,101328.78
2022-07-26T23:16:36.165Z,101335.94
2022-07-26T23:19:03.493Z,101331.38
2022-07-26T23:21:30.459Z,101339.50
2022-07-26T23:23:57.509Z,101336.44
2022-07-26T23:26:24.480Z,101339.91
2022-07-26T23:28:51.593Z,101340.88
2022-07-26T23:31:18.618Z,101337.41
2022-07-26T23:33:52.482Z,101324.28
2022-07-26T23:36:30.092Z,101335.94
2022-07-26T23:38:59.363Z,101337.63
2022-07-26T23:41:28.101Z,101333.94
2022-07-26T23:43:56.522Z,101332.00
2022-07-26T23:46:25.036Z,101342.25
2022-07-26T23:48:52.450Z,101332.66
2022-07-26T23:51:19.642Z,101333.94
2022-07-26T23:53:47.199Z,101340.94
2022-07-26T23:56:15.400Z,101333.94
2022-07-26T23:58:43.131Z,101341.19
